Time;durP1;ratioP1;P1;durP2;ratioP2;P2;SDS_P1;SDS_P2;PMS_P1;PMS_P2;Temp;Humidity;BMP_temperature;BMP_pressure;BME280_temperature;BME280_humidity;BME280_pressure;Samples;Min_cycle;Max_cycle;Signal;HPM_P1;HPM_P2
2023/12/23 00:01:08;;;;;;;1.98;0.47;;;;;;;;;;6009193;23;20171;-92
2023/12/23 00:04:19;;;;;;;2.05;0.50;;;;;;;;;;6009213;23;20176;-90
2023/12/23 00:07:31;;;;;;;1.13;0.65;;;;;;;;;;6009547;23;20200;-87
2023/12/23 00:10:43;;;;;;;1.60;0.57;;;;;;;;;;6009727;23;20202;-91
2023/12/23 00:13:55;;;;;;;1.13;0.60;;;;;;;;;;6009217;23;20184;-91
2023/12/23 00:17:07;;;;;;;1.35;0.70;;;;;;;;;;6010836;23;20191;-91
2023/12/23 00:20:17;;;;;;;1.50;0.60;;;;;;;;;;6009169;23;20177;-92
2023/12/23 00:23:29;;;;;;;2.58;0.70;;;;;;;;;;6007949;23;20160;-90
2023/12/23 00:26:41;;;;;;;1.40;0.57;;;;;;;;;;6009053;23;20168;-94
2023/12/23 00:29:54;;;;;;;1.08;0.45;;;;;;;;;;6007980;23;20192;-93
2023/12/23 00:33:06;;;;;;;2.78;0.50;;;;;;;;;;6008798;23;20163;-89
2023/12/23 00:36:18;;;;;;;0.95;0.70;;;;;;;;;;6008892;23;20180;-87
2023/12/23 00:39:32;;;;;;;0.57;0.40;;;;;;;;;;6010675;23;20177;-90
2023/12/23 00:42:44;;;;;;;0.55;0.47;;;;;;;;;;6009209;23;20180;-92
2023/12/23 00:45:58;;;;;;;2.17;0.73;;;;;;;;;;6010847;23;20183;-89
2023/12/23 00:49:12;;;;;;;0.47;0.40;;;;;;;;;;6008553;23;20199;-90
2023/12/23 00:52:23;;;;;;;1.30;0.50;;;;;;;;;;6010058;23;20184;-90
2023/12/23 00:55:35;;;;;;;0.73;0.40;;;;;;;;;;6007791;23;20172;-91
2023/12/23 00:58:46;;;;;;;1.58;0.70;;;;;;;;;;6008387;23;20181;-90
2023/12/23 01:01:59;;;;;;;4.85;1.98;;;;;;;;;;6023951;23;20248;-90
2023/12/23 01:05:11;;;;;;;3.80;0.85;;;;;;;;;;6007052;23;20179;-91
2023/12/23 01:08:25;;;;;;;2.55;0.52;;;;;;;;;;6006528;23;20224;-91
2023/12/23 01:11:37;;;;;;;0.60;0.47;;;;;;;;;;6007196;23;20156;-91
2023/12/23 01:14:48;;;;;;;1.48;0.55;;;;;;;;;;6007613;23;20175;-90
2023/12/23 01:18:01;;;;;;;1.20;0.63;;;;;;;;;;6006606;23;20228;-90
2023/12/23 01:21:13;;;;;;;1.88;0.90;;;;;;;;;;6009225;23;20253;-94
2023/12/23 01:24:25;;;;;;;2.78;0.80;;;;;;;;;;6010015;23;20161;-94
2023/12/23 01:27:37;;;;;;;0.95;0.55;;;;;;;;;;6009350;23;20176;-93
2023/12/23 01:30:47;;;;;;;0.77;0.50;;;;;;;;;;6008700;23;20198;-95
2023/12/23 01:34:01;;;;;;;2.90;0.80;;;;;;;;;;6007985;23;20238;-93
2023/12/23 01:37:15;;;;;;;0.68;0.40;;;;;;;;;;6008931;23;20172;-93
2023/12/23 01:40:27;;;;;;;3.78;0.73;;;;;;;;;;6010436;23;20504;-93
2023/12/23 01:43:39;;;;;;;1.52;0.70;;;;;;;;;;6010000;23;20256;-93
2023/12/23 01:46:53;;;;;;;5.57;0.80;;;;;;;;;;6009380;23;20208;-91
2023/12/23 01:50:07;;;;;;;1.10;0.40;;;;;;;;;;6009688;23;20180;-93
2023/12/23 01:53:19;;;;;;;0.95;0.68;;;;;;;;;;6010891;23;20160;-93
2023/12/23 01:56:31;;;;;;;4.00;0.65;;;;;;;;;;6009642;23;20289;-96
2023/12/23 01:59:43;;;;;;;1.63;1.00;;;;;;;;;;6007680;23;20238;-90
2023/12/23 02:02:55;;;;;;;1.63;0.60;;;;;;;;;;6008881;23;20172;-92
2023/12/23 02:06:09;;;;;;;0.60;0.47;;;;;;;;;;6009155;23;20171;-92
2023/12/23 02:09:21;;;;;;;4.43;0.50;;;;;;;;;;6006703;23;20215;-91
2023/12/23 02:12:36;;;;;;;18.65;0.82;;;;;;;;;;6006699;23;20152;-92
2023/12/23 02:15:48;;;;;;;0.20;0.20;;;;;;;;;;6009890;23;20171;-94
2023/12/23 02:19:00;;;;;;;0.30;0.30;;;;;;;;;;6009738;23;20235;-90
2023/12/23 02:22:13;;;;;;;0.70;0.43;;;;;;;;;;6009690;23;20168;-95
2023/12/23 02:25:25;;;;;;;0.20;0.20;;;;;;;;;;6009001;23;20151;-92
2023/12/23 02:28:37;;;;;;;0.27;0.27;;;;;;;;;;6008700;23;20198;-94
2023/12/23 02:31:51;;;;;;;0.30;0.30;;;;;;;;;;6009458;23;20164;-93
2023/12/23 02:35:03;;;;;;;0.20;0.20;;;;;;;;;;6010515;23;20220;-93
2023/12/23 02:38:15;;;;;;;0.30;0.30;;;;;;;;;;6009877;23;20172;-91
2023/12/23 02:41:28;;;;;;;0.30;0.30;;;;;;;;;;6010417;23;20205;-89
2023/12/23 02:44:40;;;;;;;0.20;0.20;;;;;;;;;;6009384;23;20232;-94
2023/12/23 02:47:52;;;;;;;0.20;0.20;;;;;;;;;;6010419;23;20168;-92
2023/12/23 02:51:04;;;;;;;0.20;0.20;;;;;;;;;;6010216;23;20616;-91
2023/12/23 02:54:18;;;;;;;0.20;0.20;;;;;;;;;;6007388;23;20172;-92
2023/12/23 02:57:30;;;;;;;0.20;0.20;;;;;;;;;;6009493;23;20312;-93
2023/12/23 03:00:42;;;;;;;0.20;0.20;;;;;;;;;;6007523;23;20229;-90
2023/12/23 03:03:54;;;;;;;0.20;0.20;;;;;;;;;;6010393;23;20168;-91
2023/12/23 03:07:06;;;;;;;0.20;0.20;;;;;;;;;;6008754;23;20677;-92
2023/12/23 03:10:21;;;;;;;0.60;0.60;;;;;;;;;;6010337;23;20278;-92
2023/12/23 03:13:32;;;;;;;0.20;0.20;;;;;;;;;;6008968;23;20192;-93
2023/12/23 03:16:44;;;;;;;0.20;0.20;;;;;;;;;;6009133;23;20223;-92
2023/12/23 03:19:56;;;;;;;0.20;0.20;;;;;;;;;;6009290;23;20176;-92
2023/12/23 03:23:10;;;;;;;0.30;0.30;;;;;;;;;;6007670;23;20172;-91
2023/12/23 03:26:24;;;;;;;0.30;0.30;;;;;;;;;;6010540;23;20217;-92
2023/12/23 03:29:36;;;;;;;0.30;0.30;;;;;;;;;;6010401;23;20179;-91
2023/12/23 03:32:48;;;;;;;0.20;0.20;;;;;;;;;;6013004;23;20228;-92
2023/12/23 03:35:59;;;;;;;0.30;0.30;;;;;;;;;;6012038;23;20167;-90
2023/12/23 03:39:11;;;;;;;0.20;0.20;;;;;;;;;;6013049;23;20193;-92
2023/12/23 03:42:24;;;;;;;0.20;0.20;;;;;;;;;;6010172;23;20156;-91
2023/12/23 03:45:39;;;;;;;0.30;0.30;;;;;;;;;;6010479;23;20297;-93
2023/12/23 03:48:51;;;;;;;0.30;0.30;;;;;;;;;;6009098;23;20624;-93
2023/12/23 03:52:03;;;;;;;0.30;0.30;;;;;;;;;;6009009;23;20168;-92
2023/12/23 03:55:15;;;;;;;0.30;0.30;;;;;;;;;;6010143;23;20160;-94
2023/12/23 03:58:28;;;;;;;0.30;0.30;;;;;;;;;;6011739;23;20201;-91
2023/12/23 04:01:40;;;;;;;0.27;0.27;;;;;;;;;;6010607;23;20175;-91
2023/12/23 04:04:52;;;;;;;0.30;0.30;;;;;;;;;;6010149;23;20191;-93
2023/12/23 04:08:04;;;;;;;0.30;0.30;;;;;;;;;;6009194;23;20175;-94
2023/12/23 04:11:15;;;;;;;0.47;0.47;;;;;;;;;;6009824;23;20175;-93
2023/12/23 04:14:29;;;;;;;0.23;0.23;;;;;;;;;;6009391;23;20172;-94
2023/12/23 04:17:41;;;;;;;0.30;0.30;;;;;;;;;;6008879;23;20180;-90
2023/12/23 04:20:53;;;;;;;0.30;0.30;;;;;;;;;;6010813;23;20211;-91
2023/12/23 04:24:05;;;;;;;0.20;0.20;;;;;;;;;;6009834;23;20184;-90
2023/12/23 04:27:17;;;;;;;0.30;0.30;;;;;;;;;;6009851;23;20204;-93
2023/12/23 04:30:31;;;;;;;0.30;0.30;;;;;;;;;;6006870;23;20325;-92
2023/12/23 04:33:43;;;;;;;0.20;0.20;;;;;;;;;;6009079;23;20156;-92
2023/12/23 04:36:55;;;;;;;4.03;0.60;;;;;;;;;;6009522;23;20171;-91
2023/12/23 04:40:07;;;;;;;0.30;0.30;;;;;;;;;;6010527;23;20196;-92
2023/12/23 04:43:19;;;;;;;0.20;0.20;;;;;;;;;;6008380;23;20168;-90
2023/12/23 04:46:32;;;;;;;0.30;0.30;;;;;;;;;;6009253;23;20176;-93
2023/12/23 04:49:43;;;;;;;0.30;0.30;;;;;;;;;;6008804;23;20308;-92
2023/12/23 04:52:56;;;;;;;0.20;0.20;;;;;;;;;;6007715;23;20176;-91
2023/12/23 04:56:11;;;;;;;0.30;0.30;;;;;;;;;;6009535;23;20188;-91
2023/12/23 04:59:23;;;;;;;0.30;0.30;;;;;;;;;;6010522;23;20196;-91
2023/12/23 05:02:36;;;;;;;0.20;0.20;;;;;;;;;;6010673;23;20168;-91
2023/12/23 05:05:48;;;;;;;0.27;0.27;;;;;;;;;;6012104;23;20170;-90
2023/12/23 05:09:00;;;;;;;0.20;0.20;;;;;;;;;;6011057;23;20211;-90
2023/12/23 05:12:12;;;;;;;0.20;0.20;;;;;;;;;;6010387;23;20172;-90
2023/12/23 05:15:25;;;;;;;1.07;0.90;;;;;;;;;;6010696;23;20616;-92
2023/12/23 05:18:39;;;;;;;0.27;0.27;;;;;;;;;;6010305;23;20621;-92
2023/12/23 05:21:51;;;;;;;0.20;0.20;;;;;;;;;;6011404;23;20181;-91
2023/12/23 05:25:04;;;;;;;0.30;0.30;;;;;;;;;;6011310;23;20230;-91
2023/12/23 05:28:16;;;;;;;0.30;0.30;;;;;;;;;;6011887;23;20156;-91
2023/12/23 05:31:28;;;;;;;0.30;0.30;;;;;;;;;;6011223;23;20193;-92
2023/12/23 05:34:42;;;;;;;0.30;0.30;;;;;;;;;;6012385;23;20156;-92
2023/12/23 05:37:54;;;;;;;0.40;0.40;;;;;;;;;;6012434;23;20172;-91
2023/12/23 05:41:05;;;;;;;0.30;0.30;;;;;;;;;;6012180;23;20176;-90
2023/12/23 05:44:18;;;;;;;0.30;0.30;;;;;;;;;;6012420;23;20168;-93
2023/12/23 05:47:30;;;;;;;0.20;0.20;;;;;;;;;;6012014;23;20180;-93
2023/12/23 05:50:44;;;;;;;0.30;0.30;;;;;;;;;;6012994;23;20232;-92
2023/12/23 05:53:58;;;;;;;0.30;0.30;;;;;;;;;;6012376;23;20279;-89
2023/12/23 05:57:09;;;;;;;0.30;0.30;;;;;;;;;;6009462;23;20168;-91
2023/12/23 06:00:21;;;;;;;0.20;0.20;;;;;;;;;;6009913;23;20209;-92
2023/12/23 06:03:33;;;;;;;0.23;0.23;;;;;;;;;;6010538;23;20615;-94
2023/12/23 06:06:46;;;;;;;0.30;0.30;;;;;;;;;;6009953;23;20172;-95
2023/12/23 06:09:58;;;;;;;0.30;0.30;;;;;;;;;;6010295;23;20219;-92
2023/12/23 06:13:10;;;;;;;0.30;0.30;;;;;;;;;;6010625;23;20156;-92
2023/12/23 06:16:22;;;;;;;0.30;0.30;;;;;;;;;;6010589;23;20175;-93
2023/12/23 06:19:34;;;;;;;0.30;0.30;;;;;;;;;;6010880;23;20183;-92
2023/12/23 06:22:48;;;;;;;0.27;0.27;;;;;;;;;;6010942;23;20180;-93
2023/12/23 06:25:59;;;;;;;0.20;0.20;;;;;;;;;;6010898;23;20258;-93
2023/12/23 06:29:11;;;;;;;0.30;0.30;;;;;;;;;;6011321;23;20195;-91
2023/12/23 06:32:23;;;;;;;0.87;0.87;;;;;;;;;;6010842;23;20180;-93
2023/12/23 06:35:35;;;;;;;0.30;0.30;;;;;;;;;;6010389;23;20175;-92
2023/12/23 06:38:49;;;;;;;0.30;0.30;;;;;;;;;;6008903;23;20201;-92
2023/12/23 06:42:00;;;;;;;0.40;0.40;;;;;;;;;;6009164;23;20167;-92
2023/12/23 06:45:14;;;;;;;0.20;0.20;;;;;;;;;;6009754;23;20168;-93
2023/12/23 06:48:26;;;;;;;14.87;0.60;;;;;;;;;;6006685;23;20172;-93
2023/12/23 06:51:38;;;;;;;0.50;0.50;;;;;;;;;;6007511;23;20156;-91
2023/12/23 06:54:52;;;;;;;0.50;0.50;;;;;;;;;;6009397;23;20176;-93
2023/12/23 06:58:04;;;;;;;1.70;0.80;;;;;;;;;;6009394;23;20176;-93
2023/12/23 07:01:15;;;;;;;1.10;0.57;;;;;;;;;;6010952;23;20297;-91
2023/12/23 07:04:27;;;;;;;0.30;0.30;;;;;;;;;;6011521;23;20221;-91
2023/12/23 07:07:39;;;;;;;0.60;0.60;;;;;;;;;;6012174;23;20172;-93
2023/12/23 07:10:52;;;;;;;0.30;0.30;;;;;;;;;;6028036;23;20207;-91
2023/12/23 07:14:04;;;;;;;0.80;0.60;;;;;;;;;;6026851;23;20286;-90
2023/12/23 07:17:16;;;;;;;0.40;0.40;;;;;;;;;;6028323;23;20172;-93
2023/12/23 07:20:28;;;;;;;0.30;0.30;;;;;;;;;;6026499;23;20168;-93
2023/12/23 07:23:40;;;;;;;0.70;0.70;;;;;;;;;;6027024;23;20226;-94
2023/12/23 07:26:58;;;;;;;0.30;0.30;;;;;;;;;;6026162;23;20264;-91
2023/12/23 07:30:09;;;;;;;0.20;0.20;;;;;;;;;;6027040;23;20209;-91
2023/12/23 07:33:21;;;;;;;0.20;0.20;;;;;;;;;;6027480;23;20168;-91
2023/12/23 07:36:33;;;;;;;0.20;0.20;;;;;;;;;;6027521;23;20171;-93
2023/12/23 07:39:45;;;;;;;0.30;0.30;;;;;;;;;;6025862;23;20510;-91
2023/12/23 07:42:58;;;;;;;0.40;0.40;;;;;;;;;;6026418;23;20168;-95
2023/12/23 07:46:11;;;;;;;0.33;0.33;;;;;;;;;;6028024;23;20176;-93
2023/12/23 07:49:25;;;;;;;0.30;0.30;;;;;;;;;;6032267;23;20233;-91
2023/12/23 07:52:39;;;;;;;0.40;0.40;;;;;;;;;;6032955;23;20176;-90
2023/12/23 07:55:51;;;;;;;1.23;0.70;;;;;;;;;;6027714;23;20176;-94
2023/12/23 07:59:04;;;;;;;0.30;0.30;;;;;;;;;;6024756;23;20172;-93
2023/12/23 08:02:16;;;;;;;0.30;0.30;;;;;;;;;;6026291;23;20152;-93
2023/12/23 08:05:31;;;;;;;0.20;0.20;;;;;;;;;;6026435;23;20500;-91
2023/12/23 08:08:43;;;;;;;0.20;0.20;;;;;;;;;;6027600;23;20187;-91
2023/12/23 08:11:56;;;;;;;0.20;0.20;;;;;;;;;;6014186;23;20180;-92
2023/12/23 08:15:10;;;;;;;0.63;0.57;;;;;;;;;;6014875;23;20173;-91
2023/12/23 08:18:24;;;;;;;0.20;0.20;;;;;;;;;;6011305;23;20160;-94
2023/12/23 08:21:35;;;;;;;0.30;0.30;;;;;;;;;;6014957;23;20156;-93
2023/12/23 08:24:48;;;;;;;0.60;0.60;;;;;;;;;;6016028;23;20217;-94
2023/12/23 08:28:00;;;;;;;0.30;0.30;;;;;;;;;;6015883;23;20241;-92
2023/12/23 08:31:15;;;;;;;0.30;0.30;;;;;;;;;;6014956;23;20184;-94
2023/12/23 08:34:28;;;;;;;0.30;0.30;;;;;;;;;;6015031;23;20172;-92
2023/12/23 08:37:40;;;;;;;0.30;0.30;;;;;;;;;;6015815;23;20168;-93
2023/12/23 08:40:52;;;;;;;0.20;0.20;;;;;;;;;;6016356;23;20167;-93
2023/12/23 08:44:04;;;;;;;0.20;0.20;;;;;;;;;;6015574;23;20176;-93
2023/12/23 08:47:18;;;;;;;0.30;0.30;;;;;;;;;;6015733;23;20495;-93
2023/12/23 08:50:33;;;;;;;0.20;0.20;;;;;;;;;;6016031;23;20196;-93
2023/12/23 08:53:46;;;;;;;0.20;0.20;;;;;;;;;;6014713;23;20613;-90
2023/12/23 08:56:59;;;;;;;0.20;0.20;;;;;;;;;;6014028;23;20176;-93
2023/12/23 09:00:11;;;;;;;0.30;0.30;;;;;;;;;;6012715;23;20202;-91
2023/12/23 14:13:02;;;;;;;0.20;0.20;;;;;;;;;;6068457;23;20686;-93
2023/12/23 14:16:14;;;;;;;0.30;0.30;;;;;;;;;;6067139;23;20489;-92
2023/12/23 14:19:26;;;;;;;0.20;0.20;;;;;;;;;;6067106;23;20158;-92
2023/12/23 14:22:37;;;;;;;0.30;0.30;;;;;;;;;;6067412;23;20270;-92
2023/12/23 14:26:00;;;;;;;0.30;0.30;;;;;;;;;;6065482;23;20175;-91
2023/12/23 14:29:19;;;;;;;4.57;0.95;;;;;;;;;;6068849;23;20200;-94
2023/12/23 14:32:34;;;;;;;0.30;0.30;;;;;;;;;;6065286;23;20154;-93
2023/12/23 14:35:46;;;;;;;0.30;0.30;;;;;;;;;;6065614;23;20223;-95
2023/12/23 14:38:57;;;;;;;0.20;0.20;;;;;;;;;;6064699;23;20243;-93
2023/12/23 14:42:09;;;;;;;0.43;0.43;;;;;;;;;;6065090;23;20611;-95
2023/12/23 14:45:23;;;;;;;0.30;0.30;;;;;;;;;;6063580;23;20227;-92
2023/12/23 14:48:35;;;;;;;0.40;0.40;;;;;;;;;;6065558;23;20174;-94
2023/12/23 14:51:47;;;;;;;0.32;0.32;;;;;;;;;;6066361;23;20647;-92
2023/12/23 14:54:59;;;;;;;0.30;0.30;;;;;;;;;;6065791;23;20258;-92
2023/12/23 14:58:12;;;;;;;0.32;0.32;;;;;;;;;;6067555;23;20239;-93
2023/12/23 15:01:26;;;;;;;0.20;0.20;;;;;;;;;;6066789;23;20191;-92
2023/12/23 15:08:04;;;;;;;0.45;0.45;;;;;;;;;;6067786;23;20224;-93
2023/12/23 15:14:41;;;;;;;0.28;0.28;;;;;;;;;;6065493;23;20195;-93
2023/12/23 15:17:53;;;;;;;0.65;0.38;;;;;;;;;;6065667;23;20155;-94
2023/12/23 15:21:06;;;;;;;0.20;0.20;;;;;;;;;;6070394;23;20154;-92
2023/12/23 15:24:18;;;;;;;0.43;0.43;;;;;;;;;;6069346;23;20166;-91
2023/12/23 15:27:30;;;;;;;0.43;0.43;;;;;;;;;;6071995;23;20150;-92
2023/12/23 15:30:43;;;;;;;0.40;0.40;;;;;;;;;;6069136;23;20235;-93
2023/12/23 15:33:57;;;;;;;0.35;0.35;;;;;;;;;;6070502;23;20175;-94
2023/12/23 15:37:09;;;;;;;0.30;0.30;;;;;;;;;;6070452;23;20244;-94
2023/12/23 15:40:22;;;;;;;0.30;0.30;;;;;;;;;;6069355;23;20526;-93
2023/12/23 15:43:38;;;;;;;0.30;0.30;;;;;;;;;;6065410;23;20167;-93
2023/12/23 15:46:50;;;;;;;0.30;0.30;;;;;;;;;;6067987;23;20154;-92
2023/12/23 15:50:03;;;;;;;0.30;0.30;;;;;;;;;;6067789;23;20174;-94
2023/12/23 15:53:15;;;;;;;0.20;0.20;;;;;;;;;;6064965;23;20579;-93
2023/12/23 15:56:27;;;;;;;0.40;0.40;;;;;;;;;;6066961;23;20171;-93
2023/12/23 15:59:39;;;;;;;0.20;0.20;;;;;;;;;;6067954;23;20236;-93
2023/12/23 16:02:51;;;;;;;0.28;0.28;;;;;;;;;;6065908;23;20154;-93
2023/12/23 16:06:05;;;;;;;0.30;0.30;;;;;;;;;;6066446;23;20231;-94
2023/12/23 16:09:18;;;;;;;0.30;0.30;;;;;;;;;;6067423;23;20235;-94
2023/12/23 16:12:30;;;;;;;0.80;0.63;;;;;;;;;;6068621;23;20198;-92
2023/12/23 16:15:42;;;;;;;0.73;0.60;;;;;;;;;;6068793;23;20170;-93
2023/12/23 16:18:54;;;;;;;0.30;0.30;;;;;;;;;;6067966;23;20175;-92
2023/12/23 16:22:07;;;;;;;0.30;0.30;;;;;;;;;;6066106;23;20602;-92
2023/12/23 16:25:19;;;;;;;0.30;0.30;;;;;;;;;;6066324;23;20218;-92
2023/12/23 16:28:31;;;;;;;0.20;0.20;;;;;;;;;;6070232;23;20258;-91
2023/12/23 16:31:44;;;;;;;0.30;0.30;;;;;;;;;;6071557;23;20210;-92
2023/12/23 16:34:56;;;;;;;0.30;0.30;;;;;;;;;;6072963;23;20171;-91
2023/12/23 16:38:09;;;;;;;0.30;0.30;;;;;;;;;;6068632;23;20178;-92
2023/12/23 16:41:21;;;;;;;0.30;0.30;;;;;;;;;;6069492;23;20190;-93
2023/12/23 16:44:33;;;;;;;0.30;0.30;;;;;;;;;;6068528;23;20158;-92
2023/12/23 16:47:45;;;;;;;0.38;0.38;;;;;;;;;;6069549;23;20168;-93
2023/12/23 16:54:26;;;;;;;0.30;0.30;;;;;;;;;;6068474;23;20186;-94
2023/12/23 16:57:40;;;;;;;0.30;0.30;;;;;;;;;;6067156;23;20231;-92
2023/12/23 17:00:52;;;;;;;0.50;0.50;;;;;;;;;;6067262;23;20174;-92
2023/12/23 17:04:04;;;;;;;0.20;0.20;;;;;;;;;;6069179;23;20166;-93
2023/12/23 17:07:16;;;;;;;0.20;0.20;;;;;;;;;;6067924;23;20182;-94
2023/12/23 17:10:34;;;;;;;0.75;0.47;;;;;;;;;;6069006;23;20154;-91
2023/12/23 17:13:45;;;;;;;0.30;0.30;;;;;;;;;;6066529;23;20163;-93
2023/12/23 17:16:57;;;;;;;0.40;0.40;;;;;;;;;;6064867;23;20259;-91
2023/12/23 17:20:10;;;;;;;0.20;0.20;;;;;;;;;;6069328;23;20224;-92
2023/12/23 17:23:25;;;;;;;0.55;0.55;;;;;;;;;;6068639;23;20615;-93
2023/12/23 17:26:38;;;;;;;0.30;0.30;;;;;;;;;;6066278;23;20284;-92
2023/12/23 17:29:50;;;;;;;0.30;0.30;;;;;;;;;;6065953;23;20535;-94
2023/12/23 17:33:01;;;;;;;0.25;0.25;;;;;;;;;;6064910;23;20237;-92
2023/12/23 17:36:13;;;;;;;0.40;0.40;;;;;;;;;;6066849;23;20221;-93
2023/12/23 17:39:25;;;;;;;0.30;0.30;;;;;;;;;;6065413;23;20196;-91
2023/12/23 17:42:37;;;;;;;0.30;0.30;;;;;;;;;;6062504;23;20174;-92
2023/12/23 17:45:50;;;;;;;0.30;0.30;;;;;;;;;;6063136;23;20223;-93
2023/12/23 17:49:02;;;;;;;0.20;0.20;;;;;;;;;;6065343;23;20261;-93
2023/12/23 17:52:14;;;;;;;0.20;0.20;;;;;;;;;;6064752;23;20216;-92
2023/12/23 17:55:26;;;;;;;0.30;0.30;;;;;;;;;;6066467;23;20168;-92
2023/12/23 17:58:41;;;;;;;0.20;0.20;;;;;;;;;;6064533;23;20166;-93
2023/12/23 18:01:54;;;;;;;0.20;0.20;;;;;;;;;;6066066;23;20215;-93
2023/12/23 18:05:05;;;;;;;0.47;0.47;;;;;;;;;;6065962;23;20171;-91
2023/12/23 18:08:17;;;;;;;0.30;0.30;;;;;;;;;;6065970;23;20495;-93
2023/12/23 18:11:29;;;;;;;0.32;0.32;;;;;;;;;;5994085;23;1747028;-92
2023/12/23 18:14:42;;;;;;;0.30;0.30;;;;;;;;;;6065670;23;20162;-93
2023/12/23 18:17:54;;;;;;;0.43;0.40;;;;;;;;;;6068658;23;20171;-91
2023/12/23 18:21:06;;;;;;;0.73;0.50;;;;;;;;;;6069637;23;20165;-93
2023/12/23 18:24:18;;;;;;;0.30;0.30;;;;;;;;;;6068067;23;20219;-93
2023/12/23 18:27:29;;;;;;;0.30;0.30;;;;;;;;;;6066635;23;20171;-91
2023/12/23 18:30:43;;;;;;;0.50;0.50;;;;;;;;;;6068415;23;20268;-93
2023/12/23 18:33:54;;;;;;;0.68;0.57;;;;;;;;;;6068272;23;20162;-94
2023/12/23 18:37:07;;;;;;;0.30;0.30;;;;;;;;;;6067092;23;20502;-93
2023/12/23 18:43:44;;;;;;;0.40;0.40;;;;;;;;;;6068142;23;20187;-90
2023/12/23 18:46:59;;;;;;;0.30;0.30;;;;;;;;;;6069445;23;20158;-90
2023/12/23 18:50:11;;;;;;;2.28;1.70;;;;;;;;;;6067839;23;20175;-92
2023/12/23 18:53:23;;;;;;;0.30;0.30;;;;;;;;;;6067281;23;20376;-91
2023/12/23 18:56:38;;;;;;;0.30;0.30;;;;;;;;;;6068283;23;20466;-93
2023/12/23 18:59:50;;;;;;;0.35;0.35;;;;;;;;;;6066819;23;20166;-93
2023/12/23 19:03:04;;;;;;;0.30;0.30;;;;;;;;;;6067259;23;20170;-91
2023/12/23 19:06:15;;;;;;;1.58;0.38;;;;;;;;;;6068039;23;20158;-91
2023/12/23 19:09:25;;;;;;;0.30;0.30;;;;;;;;;;6066738;23;20167;-92
2023/12/23 19:12:37;;;;;;;0.28;0.28;;;;;;;;;;6066929;23;20234;-91
2023/12/23 19:15:49;;;;;;;0.30;0.30;;;;;;;;;;6068792;23;20238;-91
2023/12/23 19:19:02;;;;;;;0.20;0.20;;;;;;;;;;6071323;23;20208;-93
2023/12/23 19:22:14;;;;;;;0.20;0.20;;;;;;;;;;6069282;23;20170;-91
2023/12/23 19:25:28;;;;;;;0.30;0.30;;;;;;;;;;6071476;23;20219;-93
2023/12/23 19:28:40;;;;;;;0.43;0.43;;;;;;;;;;6072821;23;20212;-92
2023/12/23 19:31:52;;;;;;;0.32;0.32;;;;;;;;;;6070468;23;20271;-92
2023/12/23 19:35:06;;;;;;;0.30;0.30;;;;;;;;;;6069326;23;20196;-92
2023/12/23 19:38:20;;;;;;;3.05;0.90;;;;;;;;;;6069209;23;20247;-90
2023/12/23 19:41:32;;;;;;;0.30;0.30;;;;;;;;;;6069832;23;20182;-92
2023/12/23 19:44:44;;;;;;;1.35;0.40;;;;;;;;;;6070000;23;20171;-94
2023/12/23 19:47:56;;;;;;;0.20;0.20;;;;;;;;;;6072309;23;20292;-93
2023/12/23 20:16:53;;;;;;;0.20;0.20;;;;;;;;;;6072449;23;20155;-92
2023/12/23 20:20:06;;;;;;;0.30;0.30;;;;;;;;;;6068483;23;20174;-92
2023/12/23 20:23:18;;;;;;;0.30;0.30;;;;;;;;;;6070363;23;20215;-94
2023/12/23 20:26:30;;;;;;;0.30;0.30;;;;;;;;;;6071634;23;20170;-93
2023/12/23 20:29:43;;;;;;;0.20;0.20;;;;;;;;;;6070359;23;20207;-93
2023/12/23 20:32:55;;;;;;;3.03;0.70;;;;;;;;;;6073572;23;20190;-92
2023/12/23 20:36:07;;;;;;;1.23;1.13;;;;;;;;;;6070228;23;20158;-93
2023/12/23 20:39:19;;;;;;;0.40;0.40;;;;;;;;;;6072268;23;20179;-94
2023/12/23 20:42:31;;;;;;;0.25;0.25;;;;;;;;;;6069688;23;20162;-94
2023/12/23 20:45:42;;;;;;;0.30;0.30;;;;;;;;;;6068976;23;20219;-94
2023/12/23 20:48:56;;;;;;;0.30;0.30;;;;;;;;;;6066820;23;20243;-93
2023/12/23 20:52:08;;;;;;;0.30;0.30;;;;;;;;;;6069027;23;20186;-95
2023/12/23 20:55:21;;;;;;;0.30;0.30;;;;;;;;;;6067560;23;20203;-95
2023/12/23 20:58:32;;;;;;;0.40;0.40;;;;;;;;;;6067663;23;20159;-93
2023/12/23 21:01:44;;;;;;;0.30;0.30;;;;;;;;;;6066929;23;20179;-94
2023/12/23 21:04:57;;;;;;;0.30;0.30;;;;;;;;;;6067400;23;20224;-92
2023/12/23 21:08:09;;;;;;;0.25;0.25;;;;;;;;;;6067136;23;20162;-95
2023/12/23 21:11:25;;;;;;;0.30;0.30;;;;;;;;;;6066535;23;20241;-92
2023/12/23 21:14:37;;;;;;;0.20;0.20;;;;;;;;;;6068415;23;20166;-94
2023/12/23 21:17:49;;;;;;;0.60;0.60;;;;;;;;;;6066162;23;20154;-91
2023/12/23 21:21:02;;;;;;;0.28;0.28;;;;;;;;;;6066356;23;20159;-92
2023/12/23 21:24:14;;;;;;;0.30;0.30;;;;;;;;;;6065036;23;20200;-92
2023/12/23 21:27:27;;;;;;;0.35;0.35;;;;;;;;;;6068938;23;20196;-93
2023/12/23 21:30:39;;;;;;;0.30;0.30;;;;;;;;;;6064747;23;20178;-91
2023/12/23 21:33:51;;;;;;;0.30;0.30;;;;;;;;;;6063955;23;20163;-93
2023/12/23 21:37:07;;;;;;;0.28;0.28;;;;;;;;;;6065502;23;20175;-93
2023/12/23 21:40:19;;;;;;;0.20;0.20;;;;;;;;;;6065550;23;20270;-94
2023/12/23 21:43:31;;;;;;;0.32;0.32;;;;;;;;;;6065488;23;20167;-93
2023/12/23 21:46:43;;;;;;;0.40;0.40;;;;;;;;;;6065505;23;20243;-92
2023/12/23 21:49:55;;;;;;;0.47;0.47;;;;;;;;;;6064073;23;20151;-93
2023/12/23 21:53:08;;;;;;;0.30;0.30;;;;;;;;;;6065689;23;20198;-92
2023/12/23 21:56:20;;;;;;;0.20;0.20;;;;;;;;;;6063650;23;20247;-95
2023/12/23 21:59:32;;;;;;;0.30;0.30;;;;;;;;;;6064237;23;20190;-93
2023/12/23 22:02:43;;;;;;;0.38;0.38;;;;;;;;;;6066531;23;20218;-92
2023/12/23 22:05:55;;;;;;;0.22;0.22;;;;;;;;;;6064718;23;20244;-93
2023/12/23 22:09:09;;;;;;;0.30;0.30;;;;;;;;;;6064264;23;20225;-93
2023/12/23 22:12:21;;;;;;;7.57;0.52;;;;;;;;;;6065385;23;20235;-93
2023/12/23 22:15:34;;;;;;;0.30;0.30;;;;;;;;;;6066727;23;20163;-92
2023/12/23 22:18:49;;;;;;;0.38;0.38;;;;;;;;;;6070070;23;20155;-93
2023/12/23 22:22:00;;;;;;;0.20;0.20;;;;;;;;;;6066941;23;20231;-92
2023/12/23 22:25:16;;;;;;;0.30;0.30;;;;;;;;;;6065113;23;20186;-92
2023/12/23 22:28:27;;;;;;;0.30;0.30;;;;;;;;;;6063826;23;20199;-93
2023/12/23 22:31:38;;;;;;;0.30;0.30;;;;;;;;;;6063821;23;20165;-94
2023/12/23 22:34:52;;;;;;;0.30;0.30;;;;;;;;;;6064536;23;20199;-92
2023/12/23 22:38:03;;;;;;;0.38;0.38;;;;;;;;;;6065535;23;20189;-93
2023/12/23 22:41:16;;;;;;;0.30;0.30;;;;;;;;;;6064895;23;20254;-94
2023/12/23 22:44:28;;;;;;;0.30;0.30;;;;;;;;;;6065436;23;20158;-94
2023/12/23 22:47:40;;;;;;;0.25;0.25;;;;;;;;;;6064692;23;20269;-93
2023/12/23 22:50:52;;;;;;;0.30;0.30;;;;;;;;;;6066148;23;20175;-95
2023/12/23 22:54:03;;;;;;;0.30;0.30;;;;;;;;;;6062657;23;20202;-92
2023/12/23 22:57:16;;;;;;;0.20;0.20;;;;;;;;;;6063121;23;20448;-94
2023/12/23 23:00:29;;;;;;;0.20;0.20;;;;;;;;;;6063966;23;20166;-93
2023/12/23 23:03:40;;;;;;;0.30;0.30;;;;;;;;;;6063879;23;20175;-95
2023/12/23 23:06:51;;;;;;;0.30;0.30;;;;;;;;;;6065621;23;20171;-94
2023/12/23 23:10:03;;;;;;;0.70;0.70;;;;;;;;;;6062907;23;20242;-94
2023/12/23 23:13:16;;;;;;;0.38;0.38;;;;;;;;;;6064988;23;20211;-93
2023/12/23 23:16:28;;;;;;;0.35;0.35;;;;;;;;;;6063704;23;20155;-94
2023/12/23 23:19:43;;;;;;;0.20;0.20;;;;;;;;;;6064240;23;20196;-93
2023/12/23 23:22:54;;;;;;;1.35;0.55;;;;;;;;;;6063487;23;20186;-92
2023/12/23 23:26:10;;;;;;;0.30;0.30;;;;;;;;;;6062878;23;20159;-94
2023/12/23 23:29:23;;;;;;;0.30;0.30;;;;;;;;;;6064636;23;20171;-93
2023/12/23 23:32:35;;;;;;;0.30;0.30;;;;;;;;;;6065005;23;20256;-92
2023/12/23 23:35:47;;;;;;;0.20;0.20;;;;;;;;;;6065337;23;20171;-93
2023/12/23 23:38:59;;;;;;;0.30;0.30;;;;;;;;;;6065670;23;20496;-93
2023/12/23 23:42:11;;;;;;;0.30;0.30;;;;;;;;;;6068435;23;20170;-93
2023/12/23 23:45:23;;;;;;;0.30;0.30;;;;;;;;;;6068998;23;20247;-94
2023/12/23 23:48:35;;;;;;;0.95;0.60;;;;;;;;;;6068914;23;20167;-93
2023/12/23 23:51:47;;;;;;;0.30;0.30;;;;;;;;;;6066825;23;20207;-94
2023/12/23 23:54:59;;;;;;;0.45;0.45;;;;;;;;;;6066675;23;20503;-93
2023/12/23 23:58:11;;;;;;;0.28;0.28;;;;;;;;;;6069674;23;20242;-93
